Time;durP1;ratioP1;P1;durP2;ratioP2;P2;SDS_P1;SDS_P2;PMS_P1;PMS_P2;Temp;Humidity;BMP_temperature;BMP_pressure;BME280_temperature;BME280_humidity;BME280_pressure;Samples;Min_cycle;Max_cycle;Signal;HPM_P1;HPM_P2
2023/08/04 00:01:38;;;;;;;2.40;1.40;;;;;;;12.93;100.00;99842.34;4932012;28;20047;-62
2023/08/04 00:04:05;;;;;;;2.72;1.40;;;;;;;12.97;100.00;99860.63;4931490;28;20130;-62
2023/08/04 00:06:32;;;;;;;2.03;1.23;;;;;;;12.99;100.00;99852.31;4931629;28;20126;-64
2023/08/04 00:08:58;;;;;;;1.40;1.20;;;;;;;12.99;100.00;99865.78;4931627;28;20440;-62
2023/08/04 00:11:25;;;;;;;9.18;1.65;;;;;;;13.02;100.00;99865.41;4931677;28;20397;-62
2023/08/04 00:13:51;;;;;;;3.17;1.33;;;;;;;13.04;100.00;99868.72;4931474;28;20139;-62
2023/08/04 00:16:18;;;;;;;3.80;1.45;;;;;;;13.05;100.00;99867.69;4931740;28;20198;-62
2023/08/04 00:18:44;;;;;;;9.07;1.95;;;;;;;13.03;100.00;99867.06;4931238;28;20131;-63
2023/08/04 00:21:12;;;;;;;5.70;1.63;;;;;;;13.01;100.00;99866.44;4931405;28;20134;-62
2023/08/04 00:23:38;;;;;;;10.50;1.52;;;;;;;13.02;100.00;99873.47;4931561;28;20456;-62
2023/08/04 00:26:05;;;;;;;2.35;1.70;;;;;;;12.99;100.00;99879.25;4931439;28;20047;-63
2023/08/04 00:28:31;;;;;;;4.90;2.10;;;;;;;13.00;100.00;99875.53;4931597;28;20054;-63
2023/08/04 00:30:58;;;;;;;5.93;2.20;;;;;;;13.08;100.00;99886.16;4930956;28;20044;-63
2023/08/04 00:33:27;;;;;;;5.00;2.47;;;;;;;13.09;100.00;99879.72;4931004;29;20048;-62
2023/08/04 00:35:53;;;;;;;5.88;2.13;;;;;;;13.10;100.00;99882.22;4930947;29;20052;-63
2023/08/04 00:38:20;;;;;;;3.30;1.95;;;;;;;13.13;100.00;99883.69;4930826;29;20134;-63
2023/08/04 00:40:46;;;;;;;5.57;2.63;;;;;;;13.18;100.00;99883.09;4931097;29;20055;-63
2023/08/04 00:43:13;;;;;;;7.03;2.20;;;;;;;13.19;100.00;99885.59;4930930;29;20078;-63
2023/08/04 00:45:39;;;;;;;3.17;1.90;;;;;;;13.22;100.00;99890.59;4931393;29;20047;-62
2023/08/04 00:48:06;;;;;;;10.70;2.97;;;;;;;13.27;100.00;99892.69;4931289;29;20083;-62
2023/08/04 00:50:33;;;;;;;4.85;1.50;;;;;;;13.30;100.00;99895.81;4916958;29;20051;-63
2023/08/04 00:53:01;;;;;;;3.72;2.00;;;;;;;13.31;100.00;99900.16;4934816;29;20051;-63
2023/08/04 00:55:28;;;;;;;8.98;2.25;;;;;;;13.31;100.00;99892.06;4935073;29;20059;-63
2023/08/04 00:57:56;;;;;;;12.63;1.92;;;;;;;13.30;100.00;99895.81;4934660;29;20048;-63
2023/08/04 01:00:23;;;;;;;5.13;1.90;;;;;;;13.33;100.00;99892.72;4934431;29;20097;-63
2023/08/04 01:02:49;;;;;;;10.07;2.72;;;;;;;13.52;100.00;99890.31;4934356;29;20057;-62
2023/08/04 01:09:32;;;;;;;7.72;2.13;;;;;;;13.53;100.00;99898.22;4906035;29;20042;-63
2023/08/04 01:12:07;;;;;;;6.45;3.05;;;;;;;13.53;100.00;99908.19;4931545;29;20424;-63
2023/08/04 01:14:34;;;;;;;6.25;3.20;;;;;;;13.53;100.00;99905.50;4931733;29;20392;-63
2023/08/04 01:17:03;;;;;;;7.53;2.30;;;;;;;13.55;100.00;99904.22;4931228;29;20059;-63
2023/08/04 01:19:30;;;;;;;6.18;2.75;;;;;;;13.53;100.00;99909.00;4932255;29;20043;-63
2023/08/04 01:21:56;;;;;;;5.90;2.08;;;;;;;13.61;100.00;99912.56;4931467;29;20409;-62
2023/08/04 01:24:26;;;;;;;7.05;2.30;;;;;;;13.63;100.00;99908.66;4934455;29;20051;-62
2023/08/04 01:26:55;;;;;;;11.43;2.55;;;;;;;13.61;100.00;99923.34;4932968;29;20039;-63
2023/08/04 01:29:23;;;;;;;7.50;2.35;;;;;;;13.59;100.00;99926.22;4937906;29;20044;-61
2023/08/04 01:31:51;;;;;;;4.85;2.00;;;;;;;13.48;100.00;99935.69;4940592;29;20051;-60
2023/08/04 01:34:17;;;;;;;6.78;2.55;;;;;;;13.61;100.00;99939.53;4939273;29;20059;-60
2023/08/04 01:36:45;;;;;;;8.60;2.63;;;;;;;13.63;100.00;99949.06;4939175;29;20074;-61
2023/08/04 01:39:12;;;;;;;10.82;3.53;;;;;;;13.49;100.00;99952.69;4940264;28;20051;-61
2023/08/04 01:41:38;;;;;;;7.35;3.20;;;;;;;13.43;100.00;99957.03;4939440;28;20051;-60
2023/08/04 01:44:05;;;;;;;10.23;3.35;;;;;;;13.44;100.00;99969.47;4938360;28;20051;-60
2023/08/04 01:46:31;;;;;;;7.10;2.53;;;;;;;13.45;100.00;99978.38;4940279;28;20108;-63
2023/08/04 01:48:58;;;;;;;6.32;2.67;;;;;;;13.48;100.00;99983.38;4937854;28;20059;-61
2023/08/04 01:51:24;;;;;;;8.77;3.00;;;;;;;13.47;100.00;100003.28;4938056;28;20048;-63
2023/08/04 01:53:51;;;;;;;6.63;2.30;;;;;;;13.47;100.00;100006.81;4940430;28;20063;-59
2023/08/04 01:56:17;;;;;;;10.65;2.88;;;;;;;13.49;100.00;100004.75;4940071;28;20047;-61
2023/08/04 01:58:43;;;;;;;4.93;2.58;;;;;;;13.50;100.00;100013.66;4939395;28;20107;-61
2023/08/04 02:01:10;;;;;;;8.73;3.05;;;;;;;13.51;100.00;100012.63;4940722;28;20052;-61
2023/08/04 02:03:37;;;;;;;15.35;2.78;;;;;;;13.51;100.00;100021.53;4940253;28;20066;-60
2023/08/04 02:06:04;;;;;;;7.28;2.58;;;;;;;13.51;100.00;100028.78;4938763;28;20051;-60
2023/08/04 02:08:30;;;;;;;14.23;3.00;;;;;;;13.53;100.00;100024.06;4939752;28;20047;-61
2023/08/04 02:10:56;;;;;;;12.98;3.10;;;;;;;13.53;100.00;100034.84;4940148;28;20122;-60
2023/08/04 02:13:24;;;;;;;8.05;2.60;;;;;;;13.57;100.00;100034.22;4939627;28;20051;-60
2023/08/04 02:15:51;;;;;;;8.90;2.70;;;;;;;13.55;100.00;100030.06;4939809;28;20068;-60
2023/08/04 02:18:17;;;;;;;11.40;3.60;;;;;;;13.52;100.00;100035.84;4938118;28;20044;-60
2023/08/04 02:20:44;;;;;;;8.80;3.08;;;;;;;13.55;100.00;100041.66;4940366;28;20335;-60
2023/08/04 02:23:10;;;;;;;9.40;2.83;;;;;;;13.51;100.00;100039.56;4940138;28;20048;-59
2023/08/04 02:25:37;;;;;;;10.43;3.00;;;;;;;13.48;100.00;100045.34;4940057;28;20051;-59
2023/08/04 02:28:03;;;;;;;8.13;2.78;;;;;;;13.49;100.00;100047.00;4938615;28;20078;-61
2023/08/04 02:30:31;;;;;;;8.07;2.90;;;;;;;13.51;100.00;100053.06;4937817;28;20051;-63
2023/08/04 02:32:58;;;;;;;11.48;3.28;;;;;;;13.53;100.00;100048.31;4940143;28;20055;-60
2023/08/04 02:35:25;;;;;;;7.55;3.58;;;;;;;13.54;100.00;100049.97;4938892;28;20126;-62
2023/08/04 02:37:51;;;;;;;10.98;3.15;;;;;;;13.49;100.00;100050.56;4939445;28;20728;-61
2023/08/04 02:40:18;;;;;;;8.45;3.08;;;;;;;13.51;100.00;100051.19;4938769;29;20047;-61
2023/08/04 02:42:44;;;;;;;7.00;2.67;;;;;;;13.52;100.00;100054.72;4937369;29;20114;-61
2023/08/04 02:45:11;;;;;;;12.57;3.33;;;;;;;13.46;100.00;100050.13;4938207;29;20056;-61
2023/08/04 02:47:37;;;;;;;10.65;3.00;;;;;;;13.46;100.00;100056.34;4938861;29;20107;-61
2023/08/04 02:50:05;;;;;;;15.00;3.80;;;;;;;13.48;100.00;100048.03;4938364;29;20043;-61
2023/08/04 02:52:33;;;;;;;12.18;3.20;;;;;;;13.48;100.00;100050.75;4939363;29;20051;-63
2023/08/04 02:54:59;;;;;;;14.77;3.72;;;;;;;13.46;100.00;100056.34;4939052;29;20043;-61
2023/08/04 02:57:31;;;;;;;10.18;3.40;;;;;;;13.52;100.00;100052.00;4938794;29;20341;-61
2023/08/04 02:59:58;;;;;;;13.40;3.10;;;;;;;13.47;100.00;100054.47;4937975;29;20056;-61
2023/08/04 03:02:25;;;;;;;9.13;3.60;;;;;;;13.47;100.00;100058.00;4938779;29;20055;-65
2023/08/04 03:04:52;;;;;;;13.25;3.22;;;;;;;13.48;100.00;100065.03;4938955;29;20055;-61
2023/08/04 03:07:19;;;;;;;9.15;3.30;;;;;;;13.48;100.00;100067.75;4921963;29;20142;-61
2023/08/04 03:09:45;;;;;;;10.82;3.22;;;;;;;13.45;100.00;100073.50;4919134;29;20082;-61
2023/08/04 03:12:13;;;;;;;11.93;3.42;;;;;;;13.42;100.00;100073.91;4936805;29;20118;-61
2023/08/04 03:14:40;;;;;;;9.45;3.30;;;;;;;13.42;100.00;100065.00;4938280;29;20055;-61
2023/08/04 03:17:06;;;;;;;12.30;3.85;;;;;;;13.41;100.00;100069.53;4937240;29;20452;-61
2023/08/04 03:19:33;;;;;;;10.77;3.60;;;;;;;13.46;100.00;100077.06;4938360;29;20048;-60
2023/08/04 03:22:00;;;;;;;18.10;3.60;;;;;;;13.46;100.00;100071.69;4937734;29;20440;-61
2023/08/04 03:24:26;;;;;;;8.15;3.50;;;;;;;13.42;100.00;100079.28;4938696;29;20107;-60
2023/08/04 03:26:53;;;;;;;10.50;3.80;;;;;;;13.38;100.00;100078.00;4940037;29;20376;-59
2023/08/04 03:29:19;;;;;;;12.85;4.07;;;;;;;13.39;100.00;100077.00;4938220;29;20051;-60
2023/08/04 03:31:46;;;;;;;9.48;3.40;;;;;;;13.31;100.00;100083.34;4938469;29;20054;-61
2023/08/04 03:34:12;;;;;;;16.77;5.97;;;;;;;13.27;100.00;100092.00;4937961;29;20060;-61
2023/08/04 03:36:39;;;;;;;19.15;6.68;;;;;;;13.24;100.00;100093.22;4937733;29;20051;-62
2023/08/04 03:39:06;;;;;;;14.25;4.35;;;;;;;13.20;100.00;100102.72;4938178;28;20071;-61
2023/08/04 03:41:32;;;;;;;23.00;4.30;;;;;;;13.19;100.00;100103.75;4938568;28;20056;-64
2023/08/04 03:43:59;;;;;;;13.00;4.00;;;;;;;13.19;100.00;100109.16;4937992;28;20115;-60
2023/08/04 03:46:25;;;;;;;37.75;4.35;;;;;;;13.15;100.00;100105.19;4937944;28;20448;-63
2023/08/04 03:48:53;;;;;;;17.15;4.28;;;;;;;13.11;100.00;100099.34;4938220;28;20075;-61
2023/08/04 03:51:19;;;;;;;16.23;4.32;;;;;;;13.10;100.00;100111.13;4939498;28;20043;-61
2023/08/04 03:53:46;;;;;;;17.17;4.60;;;;;;;13.09;100.00;100108.63;4932683;28;20081;-63
2023/08/04 03:56:13;;;;;;;11.82;3.70;;;;;;;13.07;100.00;100113.38;4929935;28;20055;-63
2023/08/04 03:58:39;;;;;;;17.65;4.25;;;;;;;13.04;100.00;100114.59;4930410;28;20043;-64
2023/08/04 04:01:07;;;;;;;16.55;4.63;;;;;;;12.97;100.00;100108.31;4930907;28;20464;-64
2023/08/04 04:03:33;;;;;;;10.80;4.15;;;;;;;13.01;100.00;100114.97;4930634;28;20122;-62
2023/08/04 04:06:00;;;;;;;14.55;4.55;;;;;;;13.05;100.00;100120.81;4930578;28;20114;-63
2023/08/04 04:08:27;;;;;;;16.67;4.50;;;;;;;13.02;100.00;100115.81;4930169;28;20470;-63
2023/08/04 04:10:55;;;;;;;13.07;4.82;;;;;;;13.07;100.00;100126.81;4929520;28;20464;-63
2023/08/04 04:13:24;;;;;;;11.60;4.30;;;;;;;12.97;100.00;100126.31;4930870;28;20151;-62
2023/08/04 04:15:51;;;;;;;11.27;4.28;;;;;;;12.97;100.00;100123.59;4930041;28;20103;-62
2023/08/04 04:18:17;;;;;;;17.02;4.47;;;;;;;13.00;100.00;100128.63;4929877;28;20083;-63
2023/08/04 04:20:44;;;;;;;8.40;3.92;;;;;;;12.99;100.00;100124.25;4929585;28;20039;-63
2023/08/04 04:23:10;;;;;;;12.27;3.85;;;;;;;12.98;100.00;100130.69;4930192;28;20048;-63
2023/08/04 04:25:37;;;;;;;14.25;4.13;;;;;;;13.02;100.00;100135.50;4932544;28;20067;-63
2023/08/04 04:28:03;;;;;;;12.55;4.38;;;;;;;13.00;100.00;100139.38;4932482;28;20135;-63
2023/08/04 04:30:30;;;;;;;13.55;4.57;;;;;;;13.00;100.00;100144.78;4933086;28;20051;-63
2023/08/04 04:32:57;;;;;;;12.88;4.20;;;;;;;13.04;100.00;100151.44;4933488;28;20047;-62
2023/08/04 04:35:23;;;;;;;20.67;4.40;;;;;;;13.10;100.00;100156.06;4934780;28;20044;-62
2023/08/04 04:37:50;;;;;;;10.43;4.10;;;;;;;13.11;100.00;100163.13;4934415;28;20075;-63
2023/08/04 04:40:16;;;;;;;19.80;4.70;;;;;;;13.11;100.00;100173.88;4932682;29;20044;-63
2023/08/04 04:42:43;;;;;;;14.73;4.00;;;;;;;13.15;100.00;100169.81;4933148;29;20055;-64
2023/08/04 04:45:10;;;;;;;11.23;3.65;;;;;;;13.14;100.00;100180.75;4932683;29;20051;-64
2023/08/04 04:47:36;;;;;;;9.77;3.45;;;;;;;13.20;100.00;100180.84;4933072;29;20437;-61
2023/08/04 04:50:04;;;;;;;8.43;3.60;;;;;;;13.23;100.00;100183.16;4933252;29;20427;-63
2023/08/04 04:52:36;;;;;;;13.93;3.63;;;;;;;13.39;100.00;100189.31;4934655;29;20111;-62
2023/08/04 04:55:06;;;;;;;12.35;3.85;;;;;;;13.44;100.00;100194.97;4933968;29;20059;-64
2023/08/04 04:57:39;;;;;;;19.45;3.88;;;;;;;13.54;100.00;100200.88;4933059;29;20108;-62
2023/08/04 05:00:08;;;;;;;13.85;4.18;;;;;;;13.75;100.00;100200.03;4931117;29;20499;-62
2023/08/04 05:02:34;;;;;;;8.30;3.90;;;;;;;13.90;100.00;100216.16;4932312;29;20114;-61
2023/08/04 05:05:02;;;;;;;13.65;3.55;;;;;;;14.04;100.00;100217.94;4932316;29;20464;-63
2023/08/04 05:07:28;;;;;;;14.13;3.20;;;;;;;14.15;100.00;100219.25;4933070;29;20051;-62
2023/08/04 05:09:55;;;;;;;14.82;3.33;;;;;;;14.08;100.00;100221.06;4933169;29;20047;-62
2023/08/04 05:12:21;;;;;;;17.52;4.20;;;;;;;14.02;100.00;100220.84;4933835;29;20467;-62
2023/08/04 05:14:48;;;;;;;17.98;3.22;;;;;;;14.00;100.00;100228.28;4933487;29;20186;-62
2023/08/04 05:17:14;;;;;;;8.95;3.47;;;;;;;13.98;100.00;100230.34;4933416;29;20048;-62
2023/08/04 05:19:41;;;;;;;16.88;4.40;;;;;;;14.11;100.00;100221.50;4932660;29;20078;-61
2023/08/04 05:22:07;;;;;;;15.95;3.53;;;;;;;14.20;100.00;100227.63;4932003;29;20519;-61
2023/08/04 05:24:34;;;;;;;12.45;3.55;;;;;;;14.27;100.00;100229.31;4932520;29;20075;-62
2023/08/04 05:27:01;;;;;;;16.92;3.50;;;;;;;14.36;100.00;100240.81;4932137;29;20047;-62
2023/08/04 05:29:28;;;;;;;18.98;3.67;;;;;;;14.22;100.00;100242.59;4933074;29;20048;-62
2023/08/04 05:31:57;;;;;;;12.98;3.72;;;;;;;14.16;100.00;100240.66;4943779;29;20063;-62
2023/08/04 05:34:25;;;;;;;16.63;3.63;;;;;;;14.13;100.00;100242.91;4951334;28;20051;-62
2023/08/04 05:36:51;;;;;;;16.05;4.72;;;;;;;14.15;100.00;100240.84;4952640;29;20051;-62
2023/08/04 05:39:18;;;;;;;10.25;3.10;;;;;;;14.35;100.00;100249.09;4941149;28;20404;-62
2023/08/04 05:41:47;;;;;;;12.63;3.50;;;;;;;14.24;100.00;100248.59;4933745;28;20051;-62
2023/08/04 05:44:14;;;;;;;11.45;3.45;;;;;;;14.27;100.00;100255.47;4933037;28;20437;-61
2023/08/04 05:46:41;;;;;;;12.98;2.90;;;;;;;14.18;100.00;100259.34;4933218;28;20061;-62
2023/08/04 05:49:07;;;;;;;10.65;4.05;;;;;;;14.17;100.00;100260.38;4933428;28;20135;-61
2023/08/04 05:51:34;;;;;;;14.43;3.47;;;;;;;14.25;100.00;100268.31;4932892;28;20476;-61
2023/08/04 05:54:00;;;;;;;11.70;3.42;;;;;;;14.40;100.00;100268.25;4932097;28;20067;-58
2023/08/04 05:56:27;;;;;;;13.43;3.42;;;;;;;14.33;100.00;100275.47;4932904;28;20480;-60
2023/08/04 05:58:53;;;;;;;8.88;3.50;;;;;;;14.18;100.00;100284.44;4933875;28;20122;-58
2023/08/04 06:01:20;;;;;;;11.73;3.45;;;;;;;14.33;100.00;100278.16;4931475;28;20048;-58
2023/08/04 06:03:47;;;;;;;15.73;3.63;;;;;;;14.30;100.00;100276.69;4931742;28;20500;-58
2023/08/04 06:06:13;;;;;;;17.13;3.97;;;;;;;14.45;100.00;100277.41;4931563;28;20059;-61
2023/08/04 06:08:40;;;;;;;8.82;2.67;;;;;;;14.42;100.00;100276.97;4933243;29;20518;-61
2023/08/04 06:11:07;;;;;;;17.52;6.63;;;;;;;14.38;100.00;100291.88;4933307;29;20364;-62
2023/08/04 06:13:34;;;;;;;11.15;3.33;;;;;;;14.30;100.00;100296.41;4933042;29;20115;-61
2023/08/04 06:16:01;;;;;;;14.50;4.78;;;;;;;14.46;100.00;100289.88;4931716;29;20056;-61
2023/08/04 06:18:28;;;;;;;15.18;4.03;;;;;;;14.58;100.00;100295.56;4932351;29;20067;-61
2023/08/04 06:20:54;;;;;;;14.20;3.17;;;;;;;14.50;100.00;100298.44;4933644;29;20107;-61
2023/08/04 06:23:21;;;;;;;6.30;2.50;;;;;;;14.68;100.00;100300.63;4932588;29;20412;-62
2023/08/04 06:25:47;;;;;;;11.43;2.75;;;;;;;14.71;100.00;100305.63;4932574;29;20106;-62
2023/08/04 06:28:14;;;;;;;8.50;2.45;;;;;;;14.79;100.00;100307.38;4930839;29;20500;-62
2023/08/04 06:30:40;;;;;;;12.80;3.15;;;;;;;14.94;100.00;100306.19;4931920;29;20047;-60
2023/08/04 06:33:07;;;;;;;7.32;2.70;;;;;;;14.90;100.00;100317.63;4951518;29;20050;-61
2023/08/04 06:35:34;;;;;;;11.43;2.75;;;;;;;14.92;100.00;100320.97;4951499;29;20360;-61
2023/08/04 06:38:00;;;;;;;14.75;3.17;;;;;;;14.92;100.00;100332.59;4949338;28;20106;-61
2023/08/04 06:40:27;;;;;;;8.50;2.78;;;;;;;15.10;100.00;100334.78;4932936;28;20515;-61
2023/08/04 06:42:53;;;;;;;11.95;3.03;;;;;;;15.05;100.00;100331.84;4932814;28;20059;-62
2023/08/04 06:45:21;;;;;;;13.55;3.03;;;;;;;15.18;100.00;100341.88;4932411;28;20071;-62
2023/08/04 06:47:49;;;;;;;12.10;2.70;;;;;;;15.19;100.00;100349.78;4931362;28;20155;-62
2023/08/04 06:50:15;;;;;;;8.55;2.78;;;;;;;15.46;100.00;100352.59;4931752;28;20385;-62
2023/08/04 06:52:42;;;;;;;11.40;2.97;;;;;;;15.54;100.00;100360.56;4932108;29;20418;-61
2023/08/04 06:55:09;;;;;;;12.73;2.72;;;;;;;15.44;100.00;100357.41;4931041;29;20111;-62
2023/08/04 06:57:35;;;;;;;10.60;3.05;;;;;;;15.70;100.00;100357.50;4931358;29;20094;-63
2023/08/04 07:00:03;;;;;;;8.35;2.80;;;;;;;15.71;100.00;100366.50;4931065;29;20055;-63
2023/08/04 07:02:29;;;;;;;8.98;2.47;;;;;;;15.73;100.00;100366.28;4932312;29;20468;-63
2023/08/04 07:04:56;;;;;;;13.98;3.70;;;;;;;15.89;100.00;100353.22;4932368;29;20059;-62
2023/08/04 07:07:22;;;;;;;13.88;3.50;;;;;;;15.95;100.00;100365.94;4951480;29;20047;-63
2023/08/04 07:09:49;;;;;;;15.18;4.65;;;;;;;16.05;100.00;100361.97;4950267;29;20047;-62
2023/08/04 07:12:16;;;;;;;17.10;4.30;;;;;;;15.92;100.00;100363.63;4950016;29;20110;-62
2023/08/04 07:14:42;;;;;;;17.13;4.40;;;;;;;15.97;100.00;100364.88;4950640;29;20054;-62
2023/08/04 07:17:09;;;;;;;13.52;5.38;;;;;;;15.92;100.00;100376.34;4933502;29;20051;-62
2023/08/04 07:19:35;;;;;;;12.90;3.38;;;;;;;15.80;100.00;100377.94;4950740;29;20047;-61
2023/08/04 07:22:02;;;;;;;12.13;3.80;;;;;;;15.79;100.00;100379.81;4950941;29;20062;-62
2023/08/04 07:24:30;;;;;;;12.88;3.63;;;;;;;15.78;100.00;100388.97;4949746;29;20102;-62
2023/08/04 07:26:58;;;;;;;10.23;3.00;;;;;;;15.86;100.00;100393.38;4949672;29;20109;-61
2023/08/04 07:29:24;;;;;;;12.30;3.10;;;;;;;16.17;100.00;100393.66;4949171;29;20507;-61
2023/08/04 07:31:51;;;;;;;13.82;3.08;;;;;;;16.13;100.00;100394.28;4946221;29;20054;-61
2023/08/04 07:34:18;;;;;;;21.95;3.40;;;;;;;16.28;100.00;100394.94;4931566;29;20043;-63
2023/08/04 07:36:45;;;;;;;13.88;3.00;;;;;;;16.21;100.00;100391.38;4931132;29;20071;-61
2023/08/04 07:39:11;;;;;;;11.07;2.80;;;;;;;16.04;100.00;100396.31;4939044;28;20058;-62
2023/08/04 07:41:38;;;;;;;16.27;3.22;;;;;;;16.41;100.00;100399.53;4949863;29;20404;-61
2023/08/04 07:44:04;;;;;;;12.52;2.45;;;;;;;16.78;100.00;100399.97;4946177;29;20051;-62
2023/08/04 07:46:31;;;;;;;17.75;2.95;;;;;;;17.23;100.00;100400.13;4912144;29;20418;-61
2023/08/04 07:48:57;;;;;;;14.95;3.25;;;;;;;17.36;100.00;100410.97;4912439;29;20114;-61
2023/08/04 07:51:24;;;;;;;12.07;2.60;;;;;;;17.30;100.00;100412.66;4937063;29;20554;-62
2023/08/04 07:53:50;;;;;;;6.07;2.47;;;;;;;17.56;100.00;100411.75;4930991;29;20055;-62
2023/08/04 07:56:17;;;;;;;13.35;2.42;;;;;;;17.32;100.00;100413.25;4930992;29;20051;-63
2023/08/04 07:58:44;;;;;;;8.90;2.33;;;;;;;17.47;100.00;100420.34;4930789;29;20055;-61
2023/08/04 08:01:11;;;;;;;7.45;2.38;;;;;;;17.50;100.00;100423.44;4930115;29;20085;-62
2023/08/04 08:03:38;;;;;;;11.63;2.90;;;;;;;17.63;100.00;100424.47;4938049;29;20582;-60
2023/08/04 08:06:04;;;;;;;10.43;2.63;;;;;;;17.79;100.00;100432.13;4934168;29;20168;-63
2023/08/04 08:08:32;;;;;;;10.63;2.67;;;;;;;17.89;100.00;100431.66;4930042;29;20115;-61
2023/08/04 08:10:59;;;;;;;5.68;2.30;;;;;;;18.08;100.00;100423.44;4930835;29;20043;-63
2023/08/04 08:13:25;;;;;;;7.22;2.42;;;;;;;17.96;100.00;100435.16;4931478;29;20048;-62
2023/08/04 08:15:52;;;;;;;9.63;2.30;;;;;;;18.02;100.00;100432.44;4930807;29;20047;-63
2023/08/04 08:18:19;;;;;;;14.10;2.55;;;;;;;17.88;100.00;100428.13;4930114;29;20107;-61
2023/08/04 08:20:45;;;;;;;8.25;2.53;;;;;;;18.09;100.00;100437.81;4930327;29;20467;-63
2023/08/04 08:23:12;;;;;;;12.07;2.42;;;;;;;18.12;100.00;100428.44;4930734;29;20122;-62
2023/08/04 08:25:38;;;;;;;10.18;2.42;;;;;;;18.23;100.00;100438.63;4930421;29;20495;-62
2023/08/04 08:28:05;;;;;;;15.07;2.78;;;;;;;18.14;100.00;100437.19;4930568;29;20131;-62
2023/08/04 08:30:31;;;;;;;8.27;2.42;;;;;;;17.94;100.00;100440.00;4929719;29;20039;-61
2023/08/04 08:32:58;;;;;;;6.18;2.17;;;;;;;17.90;100.00;100442.31;4930628;29;20134;-62
2023/08/04 08:35:24;;;;;;;7.88;2.33;;;;;;;17.93;100.00;100451.91;4931228;29;20050;-62
2023/08/04 08:37:51;;;;;;;12.18;2.85;;;;;;;17.94;100.00;100459.81;4930932;29;20512;-62
2023/08/04 08:40:19;;;;;;;11.05;3.50;;;;;;;18.13;100.00;100468.09;4930376;28;20357;-61
2023/08/04 08:42:45;;;;;;;13.13;3.72;;;;;;;18.19;100.00;100468.09;4930414;28;20107;-61
2023/08/04 08:45:12;;;;;;;13.25;3.50;;;;;;;18.43;100.00;100473.81;4929027;29;20099;-62
2023/08/04 08:47:38;;;;;;;11.65;2.65;;;;;;;18.05;100.00;100469.19;4930316;29;20052;-62
2023/08/04 08:50:06;;;;;;;11.77;3.38;;;;;;;18.33;100.00;100473.44;4937563;29;20054;-62
2023/08/04 08:52:38;;;;;;;13.38;4.10;;;;;;;18.26;100.00;100473.50;4948557;29;20636;-61
2023/08/04 08:55:06;;;;;;;9.45;3.42;;;;;;;18.13;100.00;100468.91;4947586;29;20051;-61
2023/08/04 08:57:34;;;;;;;9.15;3.63;;;;;;;18.19;100.00;100472.69;4948262;29;20110;-62
2023/08/04 09:00:02;;;;;;;13.30;3.55;;;;;;;18.36;100.00;100473.84;4928478;29;20056;-62
2023/08/04 09:02:29;;;;;;;13.45;3.10;;;;;;;18.22;100.00;100470.38;4929063;29;20477;-62
2023/08/04 09:04:56;;;;;;;14.52;4.28;;;;;;;18.20;100.00;100475.22;4930754;29;20103;-62
2023/08/04 09:07:23;;;;;;;8.82;2.50;;;;;;;18.02;100.00;100477.75;4929510;29;20162;-62
2023/08/04 09:09:49;;;;;;;22.55;7.28;;;;;;;18.17;100.00;100477.50;4929803;29;20062;-64
2023/08/04 09:12:16;;;;;;;19.65;5.38;;;;;;;18.55;100.00;100475.63;4932143;29;20138;-63
2023/08/04 09:14:49;;;;;;;14.27;2.65;;;;;;;18.75;100.00;100480.91;4934089;29;20048;-61
2023/08/04 09:17:42;;;;;;;21.17;6.75;;;;;;;19.01;100.00;100488.06;4940872;29;20059;-62
2023/08/04 09:20:10;;;;;;;12.05;4.30;;;;;;;19.13;100.00;100481.91;4928590;29;20048;-63
2023/08/04 09:22:43;;;;;;;9.70;2.55;;;;;;;18.86;100.00;100495.69;4933078;29;20098;-63
2023/08/04 09:25:10;;;;;;;16.65;4.97;;;;;;;19.11;100.00;100493.00;4933558;29;20426;-62
2023/08/04 09:27:41;;;;;;;13.68;4.47;;;;;;;19.09;100.00;100499.72;4943395;29;20121;-62
2023/08/04 09:30:10;;;;;;;9.55;2.65;;;;;;;18.55;100.00;100494.63;4949066;29;20047;-63
2023/08/04 09:32:45;;;;;;;4.95;2.20;;;;;;;18.38;100.00;100492.66;4933394;29;20508;-63
2023/08/04 09:35:12;;;;;;;8.15;2.45;;;;;;;18.44;100.00;100497.19;4938378;29;20057;-63
2023/08/04 09:37:39;;;;;;;5.65;2.80;;;;;;;18.67;100.00;100502.09;4951224;29;20047;-63
2023/08/04 09:40:18;;;;;;;8.02;2.35;;;;;;;19.07;100.00;100502.66;4933949;28;20123;-63
2023/08/04 09:42:46;;;;;;;8.70;2.13;;;;;;;19.46;100.00;100496.03;4932431;28;20555;-63
2023/08/04 09:45:17;;;;;;;11.75;2.42;;;;;;;20.31;100.00;100497.97;4949907;29;20383;-63
2023/08/04 09:47:51;;;;;;;11.07;2.33;;;;;;;20.99;100.00;100493.25;4952087;29;20502;-63
2023/08/04 09:50:18;;;;;;;6.03;2.40;;;;;;;21.72;100.00;100489.22;4952376;29;20046;-62
2023/08/04 09:52:45;;;;;;;11.10;2.20;;;;;;;22.42;94.85;100490.94;4942214;29;20146;-62
2023/08/04 09:55:13;;;;;;;4.63;1.90;;;;;;;22.67;85.99;100488.72;4934661;29;20058;-63
2023/08/04 09:57:41;;;;;;;5.82;2.10;;;;;;;22.38;85.27;100484.31;4948269;29;20048;-61
2023/08/04 10:00:11;;;;;;;7.28;2.13;;;;;;;21.68;93.16;100480.69;4931141;29;20423;-63
2023/08/04 10:02:39;;;;;;;7.10;2.00;;;;;;;20.92;100.00;100482.44;4931174;29;20043;-62
2023/08/04 10:05:07;;;;;;;5.90;2.13;;;;;;;20.67;100.00;100494.38;4931325;29;20357;-63
2023/08/04 10:07:33;;;;;;;8.05;1.95;;;;;;;20.32;100.00;100494.22;4930432;29;20135;-61
2023/08/04 10:10:04;;;;;;;6.60;1.90;;;;;;;19.73;100.00;100501.22;4949135;29;20114;-63
2023/08/04 10:12:33;;;;;;;6.38;2.00;;;;;;;19.40;100.00;100510.50;4951955;29;20145;-61
2023/08/04 10:15:01;;;;;;;5.88;2.38;;;;;;;18.96;100.00;100512.34;4951428;29;20114;-62
2023/08/04 10:17:28;;;;;;;8.57;2.45;;;;;;;18.49;100.00;100498.22;4952082;29;20055;-62
2023/08/04 10:20:05;;;;;;;6.53;1.92;;;;;;;18.24;100.00;100500.88;4951959;29;20054;-62
2023/08/04 10:22:33;;;;;;;7.43;2.60;;;;;;;18.29;100.00;100500.22;4950037;28;20400;-62
2023/08/04 10:24:59;;;;;;;8.35;2.30;;;;;;;18.98;100.00;100502.09;4933049;29;20345;-62
2023/08/04 10:27:26;;;;;;;7.95;3.78;;;;;;;20.24;100.00;100505.41;4950629;29;20047;-63
2023/08/04 10:30:13;;;;;;;8.65;3.65;;;;;;;22.11;100.00;100512.19;4950518;29;20527;-63
2023/08/04 10:32:40;;;;;;;3.97;1.70;;;;;;;22.90;100.00;100509.63;4943458;29;20409;-63
2023/08/04 10:35:19;;;;;;;3.90;1.80;;;;;;;24.04;89.28;100508.34;4932494;29;20361;-63
2023/08/04 10:37:53;;;;;;;3.30;1.63;;;;;;;24.52;75.58;100511.41;4933572;29;20889;-61
2023/08/04 10:40:40;;;;;;;7.80;1.65;;;;;;;25.27;68.51;100517.84;4932433;29;20455;-62
2023/08/04 10:43:08;;;;;;;5.22;1.63;;;;;;;24.46;72.94;100518.72;4932540;29;20044;-62
2023/08/04 10:46:10;;;;;;;7.45;1.83;;;;;;;24.42;67.98;100517.59;4932689;29;20056;-61
2023/08/04 10:48:40;;;;;;;3.97;1.65;;;;;;;24.35;65.15;100503.22;4893534;29;20052;-65
2023/08/04 10:51:08;;;;;;;5.22;1.70;;;;;;;24.23;66.71;100505.28;4912474;29;20170;-62
2023/08/04 10:53:35;;;;;;;4.63;1.70;;;;;;;23.81;74.02;100500.38;4913449;29;20357;-62
2023/08/04 10:56:06;;;;;;;3.28;1.52;;;;;;;24.87;65.26;100505.41;4929522;29;20142;-61
2023/08/04 10:58:33;;;;;;;5.63;1.95;;;;;;;24.79;62.67;100511.38;4930904;29;20535;-61
2023/08/04 11:00:59;;;;;;;9.00;2.50;;;;;;;24.94;62.38;100514.25;4932106;29;20122;-62
2023/08/04 11:03:33;;;;;;;10.38;2.92;;;;;;;24.47;63.28;100506.66;4932411;29;20518;-62
2023/08/04 11:06:00;;;;;;;9.07;3.13;;;;;;;23.06;72.66;100502.50;4932157;29;20048;-62
2023/08/04 11:08:27;;;;;;;10.20;3.45;;;;;;;23.03;76.00;100498.34;4931829;29;20055;-61
2023/08/04 11:10:57;;;;;;;13.52;3.83;;;;;;;22.45;83.66;100487.72;4944420;29;20074;-62
2023/08/04 11:13:25;;;;;;;10.35;2.85;;;;;;;21.88;97.22;100483.06;4947515;29;20137;-63
2023/08/04 11:15:55;;;;;;;11.20;4.00;;;;;;;21.12;100.00;100487.59;4933811;28;20803;-62
2023/08/04 11:18:23;;;;;;;7.47;1.75;;;;;;;20.79;100.00;100482.66;4937617;29;20051;-62
2023/08/04 11:20:51;;;;;;;11.25;4.53;;;;;;;21.10;100.00;100478.78;4951027;29;20043;-62